sensor_id;sensor_type;location;lat;lon;timestamp;P1;durP1;ratioP1;P2;durP2;ratioP2
52854;SDS011;38719;51.418;7.286;2022-10-22T00:00:45;3.75;;;2.60;;
52854;SDS011;38719;51.418;7.286;2022-10-22T00:03:13;4.38;;;3.00;;
52854;SDS011;38719;51.418;7.286;2022-10-22T00:05:40;10.95;;;3.05;;
52854;SDS011;38719;51.418;7.286;2022-10-22T00:08:10;7.50;;;2.80;;
52854;SDS011;38719;51.418;7.286;2022-10-22T00:10:38;5.43;;;2.92;;
52854;SDS011;38719;51.418;7.286;2022-10-22T00:13:06;4.40;;;3.00;;
52854;SDS011;38719;51.418;7.286;2022-10-22T00:15:34;7.32;;;3.10;;
52854;SDS011;38719;51.418;7.286;2022-10-22T00:18:01;5.68;;;3.08;;
52854;SDS011;38719;51.418;7.286;2022-10-22T00:20:29;5.43;;;3.22;;
52854;SDS011;38719;51.418;7.286;2022-10-22T00:22:56;8.93;;;2.85;;
52854;SDS011;38719;51.418;7.286;2022-10-22T00:25:25;8.45;;;2.80;;
52854;SDS011;38719;51.418;7.286;2022-10-22T00:27:53;4.40;;;3.30;;
52854;SDS011;38719;51.418;7.286;2022-10-22T00:30:20;8.98;;;3.33;;
52854;SDS011;38719;51.418;7.286;2022-10-22T00:32:48;6.82;;;3.03;;
52854;SDS011;38719;51.418;7.286;2022-10-22T00:35:15;6.25;;;3.40;;
52854;SDS011;38719;51.418;7.286;2022-10-22T00:37:43;4.88;;;3.10;;
52854;SDS011;38719;51.418;7.286;2022-10-22T00:40:10;5.75;;;3.33;;
52854;SDS011;38719;51.418;7.286;2022-10-22T00:42:40;6.75;;;3.20;;
52854;SDS011;38719;51.418;7.286;2022-10-22T00:45:16;7.68;;;3.22;;
52854;SDS011;38719;51.418;7.286;2022-10-22T00:47:48;5.32;;;3.35;;
52854;SDS011;38719;51.418;7.286;2022-10-22T00:50:21;6.53;;;3.15;;
52854;SDS011;38719;51.418;7.286;2022-10-22T00:52:50;6.28;;;3.40;;
52854;SDS011;38719;51.418;7.286;2022-10-22T00:55:18;6.30;;;3.17;;
52854;SDS011;38719;51.418;7.286;2022-10-22T00:57:49;6.45;;;3.10;;
52854;SDS011;38719;51.418;7.286;2022-10-22T01:00:17;4.60;;;3.15;;
52854;SDS011;38719;51.418;7.286;2022-10-22T01:02:46;5.13;;;3.20;;
52854;SDS011;38719;51.418;7.286;2022-10-22T01:05:14;12.75;;;3.20;;
52854;SDS011;38719;51.418;7.286;2022-10-22T01:07:43;6.10;;;3.00;;
52854;SDS011;38719;51.418;7.286;2022-10-22T01:10:16;6.63;;;3.28;;
52854;SDS011;38719;51.418;7.286;2022-10-22T01:12:56;11.35;;;3.50;;
52854;SDS011;38719;51.418;7.286;2022-10-22T01:15:33;6.57;;;3.35;;
52854;SDS011;38719;51.418;7.286;2022-10-22T01:18:05;10.07;;;3.17;;
52854;SDS011;38719;51.418;7.286;2022-10-22T01:20:49;3.47;;;2.85;;
52854;SDS011;38719;51.418;7.286;2022-10-22T01:23:42;7.38;;;3.15;;
52854;SDS011;38719;51.418;7.286;2022-10-22T01:26:23;7.45;;;3.38;;
52854;SDS011;38719;51.418;7.286;2022-10-22T01:28:59;6.95;;;2.97;;
52854;SDS011;38719;51.418;7.286;2022-10-22T01:31:33;7.72;;;3.58;;
52854;SDS011;38719;51.418;7.286;2022-10-22T01:34:04;6.50;;;3.13;;
52854;SDS011;38719;51.418;7.286;2022-10-22T01:36:34;8.90;;;3.20;;
52854;SDS011;38719;51.418;7.286;2022-10-22T01:39:03;11.02;;;3.05;;
52854;SDS011;38719;51.418;7.286;2022-10-22T01:41:33;12.80;;;3.50;;
52854;SDS011;38719;51.418;7.286;2022-10-22T01:44:03;14.23;;;3.50;;
52854;SDS011;38719;51.418;7.286;2022-10-22T01:46:30;14.27;;;3.60;;
52854;SDS011;38719;51.418;7.286;2022-10-22T01:49:03;9.63;;;3.67;;
52854;SDS011;38719;51.418;7.286;2022-10-22T01:51:45;6.75;;;3.30;;
52854;SDS011;38719;51.418;7.286;2022-10-22T01:54:20;5.22;;;3.28;;
52854;SDS011;38719;51.418;7.286;2022-10-22T01:57:00;8.80;;;3.67;;
52854;SDS011;38719;51.418;7.286;2022-10-22T01:59:38;11.15;;;3.20;;
52854;SDS011;38719;51.418;7.286;2022-10-22T02:02:12;8.43;;;3.67;;
52854;SDS011;38719;51.418;7.286;2022-10-22T02:04:51;7.75;;;3.30;;
52854;SDS011;38719;51.418;7.286;2022-10-22T02:07:25;6.18;;;2.97;;
52854;SDS011;38719;51.418;7.286;2022-10-22T02:09:58;8.02;;;3.53;;
52854;SDS011;38719;51.418;7.286;2022-10-22T02:12:27;6.00;;;3.13;;
52854;SDS011;38719;51.418;7.286;2022-10-22T02:14:58;4.63;;;3.03;;
52854;SDS011;38719;51.418;7.286;2022-10-22T02:17:29;9.60;;;3.35;;
52854;SDS011;38719;51.418;7.286;2022-10-22T02:20:02;9.88;;;3.42;;
52854;SDS011;38719;51.418;7.286;2022-10-22T02:22:34;6.70;;;3.50;;
52854;SDS011;38719;51.418;7.286;2022-10-22T02:25:03;5.72;;;2.92;;
52854;SDS011;38719;51.418;7.286;2022-10-22T02:27:33;9.27;;;3.60;;
52854;SDS011;38719;51.418;7.286;2022-10-22T02:30:07;5.38;;;3.15;;
52854;SDS011;38719;51.418;7.286;2022-10-22T02:32:38;15.43;;;3.40;;
52854;SDS011;38719;51.418;7.286;2022-10-22T02:35:12;10.20;;;4.13;;
52854;SDS011;38719;51.418;7.286;2022-10-22T02:37:43;4.95;;;2.97;;
52854;SDS011;38719;51.418;7.286;2022-10-22T02:40:11;4.03;;;3.10;;
52854;SDS011;38719;51.418;7.286;2022-10-22T02:42:39;9.48;;;3.88;;
52854;SDS011;38719;51.418;7.286;2022-10-22T02:45:10;8.38;;;3.45;;
52854;SDS011;38719;51.418;7.286;2022-10-22T02:47:37;9.65;;;3.70;;
52854;SDS011;38719;51.418;7.286;2022-10-22T02:50:05;9.05;;;3.72;;
52854;SDS011;38719;51.418;7.286;2022-10-22T02:52:35;5.57;;;3.10;;
52854;SDS011;38719;51.418;7.286;2022-10-22T02:55:04;4.05;;;3.35;;
52854;SDS011;38719;51.418;7.286;2022-10-22T02:57:32;6.57;;;3.05;;
52854;SDS011;38719;51.418;7.286;2022-10-22T03:00:00;13.63;;;3.35;;
52854;SDS011;38719;51.418;7.286;2022-10-22T03:02:29;7.57;;;3.55;;
52854;SDS011;38719;51.418;7.286;2022-10-22T03:04:56;5.68;;;3.17;;
52854;SDS011;38719;51.418;7.286;2022-10-22T03:07:24;7.63;;;3.22;;
52854;SDS011;38719;51.418;7.286;2022-10-22T03:09:51;3.20;;;2.90;;
52854;SDS011;38719;51.418;7.286;2022-10-22T03:12:19;7.72;;;3.38;;
52854;SDS011;38719;51.418;7.286;2022-10-22T03:14:46;8.25;;;3.25;;
52854;SDS011;38719;51.418;7.286;2022-10-22T03:17:14;6.28;;;3.40;;
52854;SDS011;38719;51.418;7.286;2022-10-22T03:19:43;5.20;;;3.05;;
52854;SDS011;38719;51.418;7.286;2022-10-22T03:22:12;4.47;;;3.42;;
52854;SDS011;38719;51.418;7.286;2022-10-22T03:24:44;12.65;;;3.83;;
52854;SDS011;38719;51.418;7.286;2022-10-22T03:27:15;7.88;;;3.75;;
52854;SDS011;38719;51.418;7.286;2022-10-22T03:29:46;6.90;;;3.70;;
52854;SDS011;38719;51.418;7.286;2022-10-22T03:32:17;9.82;;;4.20;;
52854;SDS011;38719;51.418;7.286;2022-10-22T03:34:45;8.60;;;4.10;;
52854;SDS011;38719;51.418;7.286;2022-10-22T03:37:13;12.40;;;3.60;;
52854;SDS011;38719;51.418;7.286;2022-10-22T03:39:41;7.85;;;3.65;;
52854;SDS011;38719;51.418;7.286;2022-10-22T03:42:08;12.35;;;3.92;;
52854;SDS011;38719;51.418;7.286;2022-10-22T03:44:38;11.70;;;4.03;;
52854;SDS011;38719;51.418;7.286;2022-10-22T03:47:06;7.20;;;3.80;;
52854;SDS011;38719;51.418;7.286;2022-10-22T03:49:34;10.50;;;4.35;;
52854;SDS011;38719;51.418;7.286;2022-10-22T03:52:06;5.30;;;3.97;;
52854;SDS011;38719;51.418;7.286;2022-10-22T03:54:35;6.70;;;4.15;;
52854;SDS011;38719;51.418;7.286;2022-10-22T03:57:04;11.82;;;4.68;;
52854;SDS011;38719;51.418;7.286;2022-10-22T03:59:33;7.43;;;4.07;;
52854;SDS011;38719;51.418;7.286;2022-10-22T04:02:01;9.90;;;3.47;;
52854;SDS011;38719;51.418;7.286;2022-10-22T04:04:28;8.02;;;3.88;;
52854;SDS011;38719;51.418;7.286;2022-10-22T04:06:56;6.55;;;4.00;;
52854;SDS011;38719;51.418;7.286;2022-10-22T04:09:25;6.63;;;4.15;;
52854;SDS011;38719;51.418;7.286;2022-10-22T04:11:52;13.43;;;4.50;;
52854;SDS011;38719;51.418;7.286;2022-10-22T04:14:20;7.75;;;4.10;;
52854;SDS011;38719;51.418;7.286;2022-10-22T04:16:48;6.57;;;3.92;;
52854;SDS011;38719;51.418;7.286;2022-10-22T04:19:15;12.65;;;4.10;;
52854;SDS011;38719;51.418;7.286;2022-10-22T04:21:43;8.63;;;4.07;;
52854;SDS011;38719;51.418;7.286;2022-10-22T04:24:10;9.57;;;3.97;;
52854;SDS011;38719;51.418;7.286;2022-10-22T04:26:39;12.85;;;4.43;;
52854;SDS011;38719;51.418;7.286;2022-10-22T04:29:07;8.57;;;4.30;;
52854;SDS011;38719;51.418;7.286;2022-10-22T04:31:41;7.43;;;3.90;;
52854;SDS011;38719;51.418;7.286;2022-10-22T04:34:08;13.52;;;4.32;;
52854;SDS011;38719;51.418;7.286;2022-10-22T04:36:36;10.40;;;3.80;;
52854;SDS011;38719;51.418;7.286;2022-10-22T04:39:03;11.70;;;4.43;;
52854;SDS011;38719;51.418;7.286;2022-10-22T04:41:32;9.50;;;4.03;;
52854;SDS011;38719;51.418;7.286;2022-10-22T04:44:03;13.00;;;4.22;;
52854;SDS011;38719;51.418;7.286;2022-10-22T04:46:31;7.25;;;4.07;;
52854;SDS011;38719;51.418;7.286;2022-10-22T04:49:01;8.23;;;4.47;;
52854;SDS011;38719;51.418;7.286;2022-10-22T04:51:30;8.88;;;4.30;;
52854;SDS011;38719;51.418;7.286;2022-10-22T04:53:58;8.50;;;4.00;;
52854;SDS011;38719;51.418;7.286;2022-10-22T04:56:26;4.32;;;3.83;;
52854;SDS011;38719;51.418;7.286;2022-10-22T04:58:56;12.93;;;4.20;;
52854;SDS011;38719;51.418;7.286;2022-10-22T05:01:27;7.70;;;4.53;;
52854;SDS011;38719;51.418;7.286;2022-10-22T05:03:57;8.85;;;4.50;;
52854;SDS011;38719;51.418;7.286;2022-10-22T05:06:27;6.13;;;4.30;;
52854;SDS011;38719;51.418;7.286;2022-10-22T05:08:56;16.23;;;4.80;;
52854;SDS011;38719;51.418;7.286;2022-10-22T05:11:26;6.53;;;3.55;;
52854;SDS011;38719;51.418;7.286;2022-10-22T05:13:55;8.73;;;4.43;;
52854;SDS011;38719;51.418;7.286;2022-10-22T05:16:23;11.43;;;4.38;;
52854;SDS011;38719;51.418;7.286;2022-10-22T05:18:52;9.57;;;4.75;;
52854;SDS011;38719;51.418;7.286;2022-10-22T05:21:20;8.68;;;4.28;;
52854;SDS011;38719;51.418;7.286;2022-10-22T05:23:48;12.38;;;4.65;;
52854;SDS011;38719;51.418;7.286;2022-10-22T05:26:17;8.77;;;4.70;;
52854;SDS011;38719;51.418;7.286;2022-10-22T05:28:46;12.45;;;4.63;;
52854;SDS011;38719;51.418;7.286;2022-10-22T05:31:14;11.00;;;4.20;;
52854;SDS011;38719;51.418;7.286;2022-10-22T05:33:43;8.35;;;4.60;;
52854;SDS011;38719;51.418;7.286;2022-10-22T05:36:14;7.82;;;4.70;;
52854;SDS011;38719;51.418;7.286;2022-10-22T05:38:42;16.73;;;4.75;;
52854;SDS011;38719;51.418;7.286;2022-10-22T05:41:11;9.52;;;4.80;;
52854;SDS011;38719;51.418;7.286;2022-10-22T05:43:40;11.57;;;4.95;;
52854;SDS011;38719;51.418;7.286;2022-10-22T05:46:08;11.40;;;5.30;;
52854;SDS011;38719;51.418;7.286;2022-10-22T05:48:36;11.38;;;4.53;;
52854;SDS011;38719;51.418;7.286;2022-10-22T05:51:05;7.88;;;4.50;;
52854;SDS011;38719;51.418;7.286;2022-10-22T05:53:36;13.23;;;5.40;;
52854;SDS011;38719;51.418;7.286;2022-10-22T05:56:05;6.85;;;5.10;;
52854;SDS011;38719;51.418;7.286;2022-10-22T05:58:37;11.48;;;5.70;;
52854;SDS011;38719;51.418;7.286;2022-10-22T06:01:05;12.23;;;5.10;;
52854;SDS011;38719;51.418;7.286;2022-10-22T06:03:33;9.68;;;5.68;;
52854;SDS011;38719;51.418;7.286;2022-10-22T06:06:05;10.60;;;5.55;;
52854;SDS011;38719;51.418;7.286;2022-10-22T06:08:42;11.30;;;6.00;;
52854;SDS011;38719;51.418;7.286;2022-10-22T06:11:09;14.88;;;6.38;;
52854;SDS011;38719;51.418;7.286;2022-10-22T06:13:37;10.90;;;5.90;;
52854;SDS011;38719;51.418;7.286;2022-10-22T06:16:04;13.20;;;6.13;;
52854;SDS011;38719;51.418;7.286;2022-10-22T06:18:32;11.20;;;6.13;;
52854;SDS011;38719;51.418;7.286;2022-10-22T06:21:03;11.48;;;6.70;;
52854;SDS011;38719;51.418;7.286;2022-10-22T06:23:32;9.88;;;6.40;;
52854;SDS011;38719;51.418;7.286;2022-10-22T06:26:01;13.98;;;5.85;;
52854;SDS011;38719;51.418;7.286;2022-10-22T06:28:29;9.95;;;5.95;;
52854;SDS011;38719;51.418;7.286;2022-10-22T06:30:58;8.68;;;5.43;;
52854;SDS011;38719;51.418;7.286;2022-10-22T06:33:26;14.07;;;6.45;;
52854;SDS011;38719;51.418;7.286;2022-10-22T06:35:54;13.07;;;5.80;;
52854;SDS011;38719;51.418;7.286;2022-10-22T06:38:22;14.05;;;5.85;;
52854;SDS011;38719;51.418;7.286;2022-10-22T06:40:52;15.25;;;5.57;;
52854;SDS011;38719;51.418;7.286;2022-10-22T06:43:20;7.15;;;5.25;;
52854;SDS011;38719;51.418;7.286;2022-10-22T06:45:48;13.60;;;6.60;;
52854;SDS011;38719;51.418;7.286;2022-10-22T06:48:15;9.25;;;5.45;;
52854;SDS011;38719;51.418;7.286;2022-10-22T06:50:43;7.75;;;4.93;;
52854;SDS011;38719;51.418;7.286;2022-10-22T06:53:10;12.30;;;5.35;;
52854;SDS011;38719;51.418;7.286;2022-10-22T06:55:38;9.02;;;5.03;;
52854;SDS011;38719;51.418;7.286;2022-10-22T06:58:05;8.93;;;4.95;;
52854;SDS011;38719;51.418;7.286;2022-10-22T07:00:34;11.00;;;4.93;;
52854;SDS011;38719;51.418;7.286;2022-10-22T07:03:02;13.48;;;5.47;;
52854;SDS011;38719;51.418;7.286;2022-10-22T07:05:32;6.40;;;4.60;;
52854;SDS011;38719;51.418;7.286;2022-10-22T07:07:59;8.15;;;5.18;;
52854;SDS011;38719;51.418;7.286;2022-10-22T07:10:27;10.10;;;4.88;;
52854;SDS011;38719;51.418;7.286;2022-10-22T07:12:56;7.72;;;3.97;;
52854;SDS011;38719;51.418;7.286;2022-10-22T07:15:23;10.23;;;4.18;;
52854;SDS011;38719;51.418;7.286;2022-10-22T07:17:52;10.07;;;4.40;;
52854;SDS011;38719;51.418;7.286;2022-10-22T07:20:20;12.60;;;4.40;;
52854;SDS011;38719;51.418;7.286;2022-10-22T07:22:47;10.05;;;4.40;;
52854;SDS011;38719;51.418;7.286;2022-10-22T07:25:15;10.05;;;4.20;;
52854;SDS011;38719;51.418;7.286;2022-10-22T07:27:43;12.95;;;5.15;;
52854;SDS011;38719;51.418;7.286;2022-10-22T07:30:10;8.82;;;3.90;;
52854;SDS011;38719;51.418;7.286;2022-10-22T07:32:38;11.52;;;4.05;;
52854;SDS011;38719;51.418;7.286;2022-10-22T07:35:07;6.00;;;4.20;;
52854;SDS011;38719;51.418;7.286;2022-10-22T07:37:35;9.20;;;4.22;;
52854;SDS011;38719;51.418;7.286;2022-10-22T07:40:03;6.95;;;3.40;;
52854;SDS011;38719;51.418;7.286;2022-10-22T07:42:31;10.23;;;3.80;;
52854;SDS011;38719;51.418;7.286;2022-10-22T07:44:59;11.90;;;3.83;;
52854;SDS011;38719;51.418;7.286;2022-10-22T07:47:26;7.20;;;3.55;;
52854;SDS011;38719;51.418;7.286;2022-10-22T07:49:54;7.70;;;3.83;;
52854;SDS011;38719;51.418;7.286;2022-10-22T07:52:23;7.13;;;3.60;;
52854;SDS011;38719;51.418;7.286;2022-10-22T07:54:50;16.63;;;4.20;;
52854;SDS011;38719;51.418;7.286;2022-10-22T07:57:18;7.85;;;4.35;;
52854;SDS011;38719;51.418;7.286;2022-10-22T07:59:45;11.95;;;3.75;;
52854;SDS011;38719;51.418;7.286;2022-10-22T08:02:13;7.00;;;3.47;;
52854;SDS011;38719;51.418;7.286;2022-10-22T08:04:40;5.32;;;3.28;;
52854;SDS011;38719;51.418;7.286;2022-10-22T08:07:08;5.50;;;3.50;;
52854;SDS011;38719;51.418;7.286;2022-10-22T08:09:37;10.73;;;3.47;;
52854;SDS011;38719;51.418;7.286;2022-10-22T08:12:05;6.60;;;3.30;;
52854;SDS011;38719;51.418;7.286;2022-10-22T08:14:33;11.45;;;3.60;;
52854;SDS011;38719;51.418;7.286;2022-10-22T08:17:00;7.43;;;3.92;;
52854;SDS011;38719;51.418;7.286;2022-10-22T08:19:28;11.77;;;4.82;;
52854;SDS011;38719;51.418;7.286;2022-10-22T08:21:57;7.60;;;3.50;;
52854;SDS011;38719;51.418;7.286;2022-10-22T08:24:25;10.95;;;3.28;;
52854;SDS011;38719;51.418;7.286;2022-10-22T08:26:54;8.48;;;3.10;;
52854;SDS011;38719;51.418;7.286;2022-10-22T08:29:22;9.65;;;3.67;;
52854;SDS011;38719;51.418;7.286;2022-10-22T08:31:49;9.05;;;3.13;;
52854;SDS011;38719;51.418;7.286;2022-10-22T08:34:17;6.50;;;3.10;;
52854;SDS011;38719;51.418;7.286;2022-10-22T08:36:45;8.88;;;3.38;;
52854;SDS011;38719;51.418;7.286;2022-10-22T08:39:13;9.23;;;3.20;;
52854;SDS011;38719;51.418;7.286;2022-10-22T08:41:42;5.60;;;3.10;;
52854;SDS011;38719;51.418;7.286;2022-10-22T08:44:23;10.20;;;2.83;;
52854;SDS011;38719;51.418;7.286;2022-10-22T08:47:08;10.23;;;3.10;;
52854;SDS011;38719;51.418;7.286;2022-10-22T08:49:47;6.32;;;2.63;;
52854;SDS011;38719;51.418;7.286;2022-10-22T08:52:16;7.78;;;3.17;;
52854;SDS011;38719;51.418;7.286;2022-10-22T08:54:48;4.75;;;3.00;;
52854;SDS011;38719;51.418;7.286;2022-10-22T08:57:22;4.80;;;2.95;;
52854;SDS011;38719;51.418;7.286;2022-10-22T09:00:02;5.85;;;3.10;;
52854;SDS011;38719;51.418;7.286;2022-10-22T09:02:34;6.05;;;2.90;;
52854;SDS011;38719;51.418;7.286;2022-10-22T09:05:15;8.07;;;2.70;;
52854;SDS011;38719;51.418;7.286;2022-10-22T09:07:51;7.20;;;2.83;;
52854;SDS011;38719;51.418;7.286;2022-10-22T09:10:22;10.20;;;3.05;;
52854;SDS011;38719;51.418;7.286;2022-10-22T09:12:54;6.85;;;3.35;;
52854;SDS011;38719;51.418;7.286;2022-10-22T09:15:22;11.80;;;2.60;;
52854;SDS011;38719;51.418;7.286;2022-10-22T09:17:57;11.65;;;2.80;;
52854;SDS011;38719;51.418;7.286;2022-10-22T09:20:35;4.22;;;2.58;;
52854;SDS011;38719;51.418;7.286;2022-10-22T09:26:03;8.40;;;3.40;;
52854;SDS011;38719;51.418;7.286;2022-10-22T09:28:38;12.23;;;2.88;;
52854;SDS011;38719;51.418;7.286;2022-10-22T09:31:09;4.30;;;2.55;;
52854;SDS011;38719;51.418;7.286;2022-10-22T09:33:37;9.05;;;2.70;;
52854;SDS011;38719;51.418;7.286;2022-10-22T09:36:06;11.82;;;2.58;;
52854;SDS011;38719;51.418;7.286;2022-10-22T09:38:38;8.07;;;2.72;;
52854;SDS011;38719;51.418;7.286;2022-10-22T09:41:07;9.88;;;2.75;;
52854;SDS011;38719;51.418;7.286;2022-10-22T09:43:35;6.45;;;2.80;;
52854;SDS011;38719;51.418;7.286;2022-10-22T09:46:04;5.78;;;2.55;;
52854;SDS011;38719;51.418;7.286;2022-10-22T09:48:35;7.00;;;2.70;;
52854;SDS011;38719;51.418;7.286;2022-10-22T09:51:05;6.63;;;2.15;;
52854;SDS011;38719;51.418;7.286;2022-10-22T09:53:40;8.25;;;2.50;;
52854;SDS011;38719;51.418;7.286;2022-10-22T09:56:14;5.07;;;2.72;;
52854;SDS011;38719;51.418;7.286;2022-10-22T09:58:48;6.57;;;2.67;;
52854;SDS011;38719;51.418;7.286;2022-10-22T10:01:18;7.15;;;2.60;;
52854;SDS011;38719;51.418;7.286;2022-10-22T10:03:54;9.18;;;2.72;;
52854;SDS011;38719;51.418;7.286;2022-10-22T10:06:34;7.75;;;2.80;;
52854;SDS011;38719;51.418;7.286;2022-10-22T10:09:05;5.50;;;2.83;;
52854;SDS011;38719;51.418;7.286;2022-10-22T10:11:42;8.15;;;2.72;;
52854;SDS011;38719;51.418;7.286;2022-10-22T10:14:12;5.68;;;2.47;;
52854;SDS011;38719;51.418;7.286;2022-10-22T10:16:48;9.27;;;2.83;;
52854;SDS011;38719;51.418;7.286;2022-10-22T10:19:29;8.65;;;2.30;;
52854;SDS011;38719;51.418;7.286;2022-10-22T10:22:06;6.38;;;2.53;;
52854;SDS011;38719;51.418;7.286;2022-10-22T10:24:44;7.72;;;2.63;;
52854;SDS011;38719;51.418;7.286;2022-10-22T10:27:24;7.90;;;2.47;;
52854;SDS011;38719;51.418;7.286;2022-10-22T10:29:59;6.55;;;2.22;;
52854;SDS011;38719;51.418;7.286;2022-10-22T10:32:32;4.07;;;2.40;;
52854;SDS011;38719;51.418;7.286;2022-10-22T10:35:17;8.17;;;2.70;;
52854;SDS011;38719;51.418;7.286;2022-10-22T10:37:52;7.00;;;3.10;;
52854;SDS011;38719;51.418;7.286;2022-10-22T10:40:32;5.82;;;2.22;;
52854;SDS011;38719;51.418;7.286;2022-10-22T10:43:08;5.43;;;2.13;;
52854;SDS011;38719;51.418;7.286;2022-10-22T10:45:41;4.97;;;1.90;;
52854;SDS011;38719;51.418;7.286;2022-10-22T10:48:24;10.95;;;2.45;;
52854;SDS011;38719;51.418;7.286;2022-10-22T10:51:09;7.03;;;2.22;;
52854;SDS011;38719;51.418;7.286;2022-10-22T10:53:53;5.95;;;2.28;;
52854;SDS011;38719;51.418;7.286;2022-10-22T10:56:29;8.50;;;2.30;;
52854;SDS011;38719;51.418;7.286;2022-10-22T10:59:11;5.43;;;2.10;;
52854;SDS011;38719;51.418;7.286;2022-10-22T11:01:45;5.82;;;1.90;;
52854;SDS011;38719;51.418;7.286;2022-10-22T11:07:14;9.48;;;2.20;;
52854;SDS011;38719;51.418;7.286;2022-10-22T11:10:00;10.20;;;2.17;;
52854;SDS011;38719;51.418;7.286;2022-10-22T11:12:35;7.70;;;2.65;;
52854;SDS011;38719;51.418;7.286;2022-10-22T11:15:11;6.15;;;2.22;;
52854;SDS011;38719;51.418;7.286;2022-10-22T11:17:48;12.07;;;2.25;;
52854;SDS011;38719;51.418;7.286;2022-10-22T11:20:21;5.68;;;2.05;;
52854;SDS011;38719;51.418;7.286;2022-10-22T11:22:54;6.68;;;3.05;;
52854;SDS011;38719;51.418;7.286;2022-10-22T11:25:46;4.43;;;1.90;;
52854;SDS011;38719;51.418;7.286;2022-10-22T11:28:16;4.70;;;2.53;;
52854;SDS011;38719;51.418;7.286;2022-10-22T11:30:48;3.92;;;1.90;;
52854;SDS011;38719;51.418;7.286;2022-10-22T11:33:21;7.72;;;2.33;;
52854;SDS011;38719;51.418;7.286;2022-10-22T11:35:52;7.10;;;2.17;;
52854;SDS011;38719;51.418;7.286;2022-10-22T11:38:24;9.05;;;2.15;;
52854;SDS011;38719;51.418;7.286;2022-10-22T11:40:56;7.82;;;1.92;;
52854;SDS011;38719;51.418;7.286;2022-10-22T11:43:27;5.53;;;2.05;;
52854;SDS011;38719;51.418;7.286;2022-10-22T11:46:00;10.10;;;3.10;;
52854;SDS011;38719;51.418;7.286;2022-10-22T11:48:35;8.35;;;2.38;;
52854;SDS011;38719;51.418;7.286;2022-10-22T11:51:13;7.93;;;1.75;;
52854;SDS011;38719;51.418;7.286;2022-10-22T11:53:58;6.80;;;2.20;;
52854;SDS011;38719;51.418;7.286;2022-10-22T11:56:35;5.93;;;1.92;;
52854;SDS011;38719;51.418;7.286;2022-10-22T11:59:07;9.98;;;1.92;;
52854;SDS011;38719;51.418;7.286;2022-10-22T12:02:00;3.15;;;1.73;;
52854;SDS011;38719;51.418;7.286;2022-10-22T12:04:39;4.38;;;2.13;;
52854;SDS011;38719;51.418;7.286;2022-10-22T12:09:59;6.40;;;1.60;;
52854;SDS011;38719;51.418;7.286;2022-10-22T12:12:34;3.67;;;1.27;;
52854;SDS011;38719;51.418;7.286;2022-10-22T12:15:19;4.63;;;1.92;;
52854;SDS011;38719;51.418;7.286;2022-10-22T12:17:49;5.22;;;1.52;;
52854;SDS011;38719;51.418;7.286;2022-10-22T12:20:17;4.90;;;1.90;;
52854;SDS011;38719;51.418;7.286;2022-10-22T12:22:46;4.88;;;1.85;;
52854;SDS011;38719;51.418;7.286;2022-10-22T12:25:17;6.75;;;1.58;;
52854;SDS011;38719;51.418;7.286;2022-10-22T12:27:49;8.68;;;1.77;;
52854;SDS011;38719;51.418;7.286;2022-10-22T12:30:19;4.63;;;1.63;;
52854;SDS011;38719;51.418;7.286;2022-10-22T12:32:50;6.88;;;1.90;;
52854;SDS011;38719;51.418;7.286;2022-10-22T12:35:20;3.53;;;1.55;;
52854;SDS011;38719;51.418;7.286;2022-10-22T12:37:51;8.40;;;2.00;;
52854;SDS011;38719;51.418;7.286;2022-10-22T12:40:22;2.08;;;1.52;;
52854;SDS011;38719;51.418;7.286;2022-10-22T12:42:53;7.85;;;1.48;;
52854;SDS011;38719;51.418;7.286;2022-10-22T12:45:24;9.68;;;1.83;;
52854;SDS011;38719;51.418;7.286;2022-10-22T12:47:54;4.10;;;1.70;;
52854;SDS011;38719;51.418;7.286;2022-10-22T12:50:24;3.55;;;1.35;;
52854;SDS011;38719;51.418;7.286;2022-10-22T12:53:00;2.97;;;1.80;;
52854;SDS011;38719;51.418;7.286;2022-10-22T12:55:27;8.18;;;1.58;;
52854;SDS011;38719;51.418;7.286;2022-10-22T12:57:57;2.47;;;1.45;;
52854;SDS011;38719;51.418;7.286;2022-10-22T13:00:26;4.03;;;1.33;;
52854;SDS011;38719;51.418;7.286;2022-10-22T13:02:59;2.63;;;1.10;;
52854;SDS011;38719;51.418;7.286;2022-10-22T13:05:31;4.28;;;1.50;;
52854;SDS011;38719;51.418;7.286;2022-10-22T13:08:07;3.00;;;1.15;;
52854;SDS011;38719;51.418;7.286;2022-10-22T13:10:37;4.68;;;1.70;;
52854;SDS011;38719;51.418;7.286;2022-10-22T13:13:05;9.02;;;2.05;;
52854;SDS011;38719;51.418;7.286;2022-10-22T13:15:35;6.65;;;1.67;;
52854;SDS011;38719;51.418;7.286;2022-10-22T13:18:06;5.07;;;1.55;;
52854;SDS011;38719;51.418;7.286;2022-10-22T13:20:48;8.25;;;1.40;;
52854;SDS011;38719;51.418;7.286;2022-10-22T13:23:19;3.90;;;1.55;;
52854;SDS011;38719;51.418;7.286;2022-10-22T13:25:55;1.92;;;1.30;;
52854;SDS011;38719;51.418;7.286;2022-10-22T13:28:24;5.43;;;2.05;;
52854;SDS011;38719;51.418;7.286;2022-10-22T13:30:53;5.55;;;1.80;;
52854;SDS011;38719;51.418;7.286;2022-10-22T13:33:22;6.68;;;1.80;;
52854;SDS011;38719;51.418;7.286;2022-10-22T13:35:52;3.53;;;1.52;;
52854;SDS011;38719;51.418;7.286;2022-10-22T13:38:23;2.67;;;1.30;;
52854;SDS011;38719;51.418;7.286;2022-10-22T13:40:52;2.00;;;1.30;;
52854;SDS011;38719;51.418;7.286;2022-10-22T13:43:20;2.90;;;1.40;;
52854;SDS011;38719;51.418;7.286;2022-10-22T13:45:50;4.60;;;1.42;;
52854;SDS011;38719;51.418;7.286;2022-10-22T13:48:20;2.63;;;1.40;;
52854;SDS011;38719;51.418;7.286;2022-10-22T13:50:50;5.10;;;1.38;;
52854;SDS011;38719;51.418;7.286;2022-10-22T13:53:19;6.53;;;1.70;;
52854;SDS011;38719;51.418;7.286;2022-10-22T13:55:51;4.30;;;1.63;;
52854;SDS011;38719;51.418;7.286;2022-10-22T13:58:19;5.97;;;1.42;;
52854;SDS011;38719;51.418;7.286;2022-10-22T14:00:50;3.22;;;1.30;;
52854;SDS011;38719;51.418;7.286;2022-10-22T14:03:20;4.60;;;1.60;;
52854;SDS011;38719;51.418;7.286;2022-10-22T14:05:51;5.28;;;1.70;;
52854;SDS011;38719;51.418;7.286;2022-10-22T14:08:20;5.57;;;1.85;;
52854;SDS011;38719;51.418;7.286;2022-10-22T14:10:50;1.75;;;1.27;;
52854;SDS011;38719;51.418;7.286;2022-10-22T14:13:18;6.90;;;1.25;;
52854;SDS011;38719;51.418;7.286;2022-10-22T14:15:47;3.03;;;1.80;;
52854;SDS011;38719;51.418;7.286;2022-10-22T14:18:19;6.03;;;2.40;;
52854;SDS011;38719;51.418;7.286;2022-10-22T14:20:52;4.95;;;1.95;;
52854;SDS011;38719;51.418;7.286;2022-10-22T14:23:22;6.13;;;1.92;;
52854;SDS011;38719;51.418;7.286;2022-10-22T14:25:52;5.70;;;2.00;;
52854;SDS011;38719;51.418;7.286;2022-10-22T14:28:20;5.25;;;1.50;;
52854;SDS011;38719;51.418;7.286;2022-10-22T14:30:48;6.90;;;1.75;;
52854;SDS011;38719;51.418;7.286;2022-10-22T14:33:17;7.03;;;2.10;;
52854;SDS011;38719;51.418;7.286;2022-10-22T14:35:51;6.25;;;1.90;;
52854;SDS011;38719;51.418;7.286;2022-10-22T14:38:18;3.20;;;1.48;;
52854;SDS011;38719;51.418;7.286;2022-10-22T14:40:46;5.38;;;1.50;;
52854;SDS011;38719;51.418;7.286;2022-10-22T14:43:17;5.95;;;1.50;;
52854;SDS011;38719;51.418;7.286;2022-10-22T14:45:47;3.08;;;1.67;;
52854;SDS011;38719;51.418;7.286;2022-10-22T14:48:14;5.35;;;1.77;;
52854;SDS011;38719;51.418;7.286;2022-10-22T14:50:42;3.17;;;1.50;;
52854;SDS011;38719;51.418;7.286;2022-10-22T14:53:10;6.57;;;2.25;;
52854;SDS011;38719;51.418;7.286;2022-10-22T14:55:39;3.83;;;2.05;;
52854;SDS011;38719;51.418;7.286;2022-10-22T14:58:09;8.38;;;2.70;;
52854;SDS011;38719;51.418;7.286;2022-10-22T15:00:39;3.88;;;1.95;;
52854;SDS011;38719;51.418;7.286;2022-10-22T15:03:07;4.47;;;2.10;;
52854;SDS011;38719;51.418;7.286;2022-10-22T15:05:38;4.60;;;1.90;;
52854;SDS011;38719;51.418;7.286;2022-10-22T15:08:08;4.88;;;1.40;;
52854;SDS011;38719;51.418;7.286;2022-10-22T15:10:36;8.10;;;1.80;;
52854;SDS011;38719;51.418;7.286;2022-10-22T15:13:03;8.25;;;1.75;;
52854;SDS011;38719;51.418;7.286;2022-10-22T15:15:31;3.15;;;1.30;;